Weather History for KFKN - February, 2013

Change the Weather History Date:

Thursday, February 7, 2013

  Actual Average (KSFQ) Record (KSFQ)
Temperature  
Mean Temperature 40 °F -  
Max Temperature 51 °F 46 °F 73 °F (2008)
Min Temperature 30 °F 29 °F 14 °F (1977)
Degree Days  
Heating Degree Days 24    
Moisture  
Dew Point 36 °F    
Average Humidity 82    
Maximum Humidity 100    
Minimum Humidity 54    
Precipitation  
Precipitation 0.00 in - - ()
Sea Level Pressure  
Sea Level Pressure 30.29 in    
Wind  
Wind Speed 5 mph (ENE)    
Max Wind Speed 14 mph    
Max Gust Speed 20 mph    
Visibility 8 miles    
Events      
Averages and records for this station are not official NWS values.
T = Trace of Precipitation, MM = Missing Value Source: NWS Daily Summary

Daily Weather History Graph

Daily Weather History Graph

Search for Another Location

Airport or City:

Trip Planner

Search our weather history database for the weather conditions in past years. The results will help you decide how hot, cold, wet, or windy it might be!

Date:

Astronomy

Feb. 07, 2013 Rise Set
Actual Time 7:03 AM EST 5:40 PM EST
Civil Twilight 6:37 AM EST 6:06 PM EST
Nautical Twilight 6:06 AM EST 6:37 PM EST
Astronomical Twilight 5:36 AM EST 7:07 PM EST
Moon 4:39 AM EST (2/7) 3:04 PM EST (2/7)
Length of Visible Light 11h 29m
Length of Day
10h 36m
Waning Crescent, 9% of the Moon is Illuminated
Feb 7
Waning Crescent
Feb 10
New
Feb 17
First Quarter
Feb 25
Full
Mar 4
Last Quarter

Hourly Weather History & Observations

Time (EST) Temp. Windchill Dew Point Humidity Pressure Visibility Wind Dir Wind Speed Gust Speed Precip Events Conditions
12:15 AM 30.2 °F - 30.2 °F 100% 30.33 in 7.0 mi Calm Calm - N/A   Clear
12:35 AM 30.2 °F - 30.2 °F 100% 30.33 in 7.0 mi Calm Calm - N/A   Clear
12:55 AM 32.0 °F - 32.0 °F 100% 30.34 in 3.0 mi Calm Calm - N/A   Clear
1:15 AM 30.2 °F - 30.2 °F 100% 30.36 in 4.0 mi Calm Calm - N/A   Clear
1:35 AM 30.2 °F - 30.2 °F 100% 30.35 in 3.0 mi Calm Calm - N/A   Clear
1:55 AM 30.2 °F - 30.2 °F 100% 30.36 in 5.0 mi Calm Calm - N/A   Clear
2:15 AM 30.2 °F - 30.2 °F 100% 30.36 in 2.0 mi Calm Calm - N/A   Clear
2:35 AM 30.2 °F - 30.2 °F 100% 30.36 in 3.0 mi Calm Calm - N/A   Clear
2:55 AM 33.8 °F 30.8 °F 33.8 °F 100% 30.35 in 2.0 mi NNE 3.5 mph - N/A   Mostly Cloudy
3:15 AM 33.8 °F - 33.8 °F 100% 30.35 in 2.0 mi Calm Calm - N/A   Mostly Cloudy
3:35 AM 33.8 °F 28.6 °F 33.8 °F 100% 30.33 in 5.0 mi NE 5.8 mph - N/A   Scattered Clouds
3:55 AM 35.6 °F 30.7 °F 35.6 °F 100% 30.34 in 7.0 mi NE 5.8 mph - N/A   Clear
4:15 AM 35.6 °F 29.9 °F 35.6 °F 100% 30.33 in 10.0 mi NE 6.9 mph - N/A   Clear
4:35 AM 35.6 °F 29.9 °F 35.6 °F 100% 30.34 in 10.0 mi NE 6.9 mph - N/A   Clear
4:55 AM 35.6 °F 30.7 °F 33.8 °F 93% 30.35 in 10.0 mi NE 5.8 mph - N/A   Clear
5:15 AM 35.6 °F 31.7 °F 32.0 °F 87% 30.35 in 10.0 mi NE 4.6 mph - N/A   Clear
5:35 AM 35.6 °F 31.7 °F 30.2 °F 81% 30.35 in 10.0 mi ENE 4.6 mph - N/A   Clear
5:55 AM 35.6 °F 31.7 °F 30.2 °F 81% 30.35 in 10.0 mi NE 4.6 mph - N/A   Clear
6:15 AM 35.6 °F 31.7 °F 30.2 °F 81% 30.35 in 10.0 mi ENE 4.6 mph - N/A   Clear
6:35 AM 35.6 °F 32.8 °F 30.2 °F 81% 30.36 in 10.0 mi NNE 3.5 mph - N/A   Clear
6:55 AM 35.6 °F - 28.4 °F 75% 30.36 in 10.0 mi Calm Calm - N/A   Clear
7:15 AM 33.8 °F - 28.4 °F 81% 30.36 in 10.0 mi Calm Calm - N/A   Clear
7:35 AM 33.8 °F - 30.2 °F 87% 30.36 in 10.0 mi Calm Calm - N/A   Clear
7:55 AM 35.6 °F - 30.2 °F 81% 30.37 in 10.0 mi Calm Calm - N/A   Clear
8:15 AM 35.6 °F 32.8 °F 30.2 °F 81% 30.38 in 10.0 mi NNE 3.5 mph - N/A   Clear
8:35 AM 37.4 °F 34.9 °F 33.8 °F 87% 30.38 in 10.0 mi NNE 3.5 mph - N/A   Clear
8:55 AM 41.0 °F 36.4 °F 33.8 °F 76% 30.38 in 10.0 mi ENE 6.9 mph - N/A   Clear
9:15 AM 42.8 °F 38.0 °F 35.6 °F 76% 30.38 in 10.0 mi ENE 8.1 mph - N/A   Clear
9:35 AM 44.6 °F 40.7 °F 35.6 °F 71% 30.39 in 10.0 mi ENE 6.9 mph - N/A   Clear
9:55 AM 46.4 °F 42.4 °F 35.6 °F 66% 30.38 in 10.0 mi NNE 8.1 mph - N/A   Clear
10:15 AM 46.4 °F 41.9 °F 35.6 °F 66% 30.38 in 10.0 mi ENE 9.2 mph - N/A   Clear
10:35 AM 46.4 °F 41.9 °F 35.6 °F 66% 30.38 in 10.0 mi ENE 9.2 mph 16.1 mph N/A   Clear
10:55 AM 48.2 °F - 35.6 °F 62% 30.37 in 10.0 mi ENE 9.2 mph - N/A   Clear
11:15 AM 48.2 °F - 35.6 °F 62% 30.36 in 10.0 mi ENE 9.2 mph - N/A   Clear
11:35 AM 50.0 °F - 35.6 °F 58% 30.36 in 10.0 mi ENE 13.8 mph - N/A   Clear
11:55 AM 50.0 °F - 35.6 °F 58% 30.35 in 10.0 mi ENE 10.4 mph - N/A   Clear
12:15 PM 48.2 °F - 35.6 °F 62% 30.33 in 10.0 mi ENE 10.4 mph - N/A   Clear
12:35 PM 50.0 °F - 35.6 °F 58% 30.32 in 10.0 mi ENE 10.4 mph - N/A   Clear
12:55 PM 50.0 °F - 35.6 °F 58% 30.30 in 10.0 mi NE 10.4 mph - N/A   Clear
1:15 PM 51.8 °F - 35.6 °F 54% 30.30 in 10.0 mi ENE 11.5 mph - N/A   Clear
1:35 PM 50.0 °F - 35.6 °F 58% 30.30 in 10.0 mi ENE 10.4 mph 13.8 mph N/A   Clear
1:55 PM 50.0 °F - 37.4 °F 62% 30.29 in 10.0 mi NE 9.2 mph - N/A   Clear
2:15 PM 50.0 °F - 35.6 °F 58% 30.28 in 10.0 mi NE 11.5 mph 16.1 mph N/A   Clear
2:35 PM 51.8 °F - 37.4 °F 58% 30.27 in 10.0 mi ENE 10.4 mph - N/A   Clear
2:55 PM 50.0 °F - 37.4 °F 62% 30.27 in 10.0 mi NE 10.4 mph - N/A   Clear
3:15 PM 48.2 °F - 37.4 °F 66% 30.27 in 10.0 mi NE 10.4 mph - N/A   Clear
3:35 PM 48.2 °F - 37.4 °F 66% 30.26 in 10.0 mi ENE 10.4 mph - N/A   Clear
3:55 PM 48.2 °F - 37.4 °F 66% 30.27 in 10.0 mi ENE 6.9 mph - N/A   Clear
4:15 PM 48.2 °F - 37.4 °F 66% 30.28 in 10.0 mi ENE 10.4 mph - N/A   Clear
4:35 PM 48.2 °F - 37.4 °F 66% 30.27 in 10.0 mi East 8.1 mph - N/A   Clear
4:55 PM 46.4 °F 41.9 °F 39.2 °F 76% 30.27 in 10.0 mi NE 9.2 mph - N/A   Scattered Clouds
5:15 PM 46.4 °F 42.4 °F 39.2 °F 76% 30.26 in 10.0 mi NE 8.1 mph - N/A   Scattered Clouds
5:35 PM 46.4 °F 42.9 °F 39.2 °F 76% 30.25 in 10.0 mi NE 6.9 mph - N/A   Mostly Cloudy
5:55 PM 44.6 °F 40.7 °F 39.2 °F 81% 30.25 in 10.0 mi ENE 6.9 mph - N/A   Mostly Cloudy
6:15 PM 44.6 °F 41.4 °F 39.2 °F 81% 30.25 in 10.0 mi ENE 5.8 mph - N/A   Mostly Cloudy
6:35 PM 44.6 °F 40.7 °F 39.2 °F 81% 30.25 in 10.0 mi ENE 6.9 mph - N/A   Overcast
6:55 PM 44.6 °F 41.4 °F 39.2 °F 81% 30.24 in 10.0 mi NE 5.8 mph - N/A   Overcast
7:15 PM 44.6 °F 40.2 °F 42.8 °F 93% 30.24 in 5.0 mi NE 8.1 mph - N/A   Overcast
7:35 PM 44.6 °F 41.4 °F 42.8 °F 93% 30.23 in 7.0 mi ENE 5.8 mph - N/A   Overcast
7:55 PM 44.6 °F 39.7 °F 42.8 °F 93% 30.21 in 10.0 mi ENE 9.2 mph - N/A   Overcast
8:15 PM 44.6 °F 40.7 °F 42.8 °F 93% 30.21 in 7.0 mi ENE 6.9 mph - N/A   Overcast
8:35 PM 44.6 °F 40.2 °F 42.8 °F 93% 30.20 in 7.0 mi East 8.1 mph - N/A   Overcast
8:55 PM 44.6 °F 39.7 °F 44.6 °F 100% 30.19 in 7.0 mi East 9.2 mph - N/A   Overcast
9:15 PM 44.6 °F 38.8 °F 44.6 °F 100% 30.18 in 5.0 mi ENE 11.5 mph - N/A   Overcast
9:35 PM 44.6 °F 38.8 °F 44.6 °F 100% 30.17 in 5.0 mi East 11.5 mph - N/A   Overcast
9:55 PM 44.6 °F 39.2 °F 44.6 °F 100% 30.17 in 5.0 mi East 10.4 mph - N/A   Overcast
10:15 PM 44.6 °F 38.1 °F 42.8 °F 93% 30.16 in 5.0 mi ENE 13.8 mph 19.6 mph N/A   Overcast
10:35 PM 44.6 °F 39.2 °F 42.8 °F 93% 30.14 in 5.0 mi ENE 10.4 mph 17.3 mph N/A   Overcast
10:55 PM 44.6 °F 38.4 °F 42.8 °F 93% 30.12 in 7.0 mi ENE 12.7 mph - N/A   Overcast
11:15 PM 44.6 °F 38.4 °F 42.8 °F 93% 30.11 in 5.0 mi ENE 12.7 mph - N/A   Overcast
11:35 PM 44.6 °F 39.7 °F 44.6 °F 100% 30.11 in 5.0 mi ENE 9.2 mph - N/A   Overcast
11:55 PM 44.6 °F 39.7 °F 44.6 °F 100% 30.09 in 5.0 mi ENE 9.2 mph - N/A   Overcast